createdAt,value
2022-11-04T00:00:28.501Z,6.77
2022-11-04T00:01:52.296Z,6.40
2022-11-04T00:03:14.382Z,7.13
2022-11-04T00:04:36.372Z,7.13
2022-11-04T00:06:02.004Z,6.77
2022-11-04T00:07:42.528Z,7.87
2022-11-04T00:09:06.632Z,6.27
2022-11-04T00:10:47.243Z,6.97
2022-11-04T00:12:24.767Z,7.20
2022-11-04T00:13:47.402Z,7.67
2022-11-04T00:15:27.926Z,7.60
2022-11-04T00:17:08.856Z,7.17
2022-11-04T00:18:30.989Z,7.40
2022-11-04T00:20:13.508Z,7.37
2022-11-04T00:21:54.244Z,7.83
2022-11-04T00:23:34.924Z,7.40
2022-11-04T00:25:15.462Z,6.57
2022-11-04T00:26:56.132Z,7.97
2022-11-04T00:28:38.530Z,7.27
2022-11-04T00:30:00.787Z,8.00
2022-11-04T00:31:41.430Z,6.87
2022-11-04T00:33:22.040Z,6.73
2022-11-04T00:34:44.089Z,7.70
2022-11-04T00:36:06.243Z,8.40
2022-11-04T00:37:28.237Z,7.40
2022-11-04T00:38:50.256Z,7.80
2022-11-04T00:40:14.704Z,7.30
2022-11-04T00:41:36.694Z,7.40
2022-11-04T00:42:58.693Z,8.17
2022-11-04T00:44:20.804Z,7.50
2022-11-04T00:45:43.322Z,8.50
2022-11-04T00:47:05.393Z,7.47
2022-11-04T00:48:27.443Z,7.53
2022-11-04T00:49:49.714Z,8.73
2022-11-04T00:52:33.716Z,7.80
2022-11-04T00:53:58.066Z,7.80
2022-11-04T00:55:20.074Z,8.90
2022-11-04T00:56:42.464Z,8.10
2022-11-04T00:58:04.492Z,7.47
2022-11-04T00:59:26.497Z,7.60
2022-11-04T01:00:48.478Z,7.53
2022-11-04T01:02:11.060Z,7.70
2022-11-04T01:03:33.178Z,8.03
2022-11-04T01:04:55.214Z,7.93
2022-11-04T01:06:18.236Z,8.47
2022-11-04T01:07:43.653Z,7.93
2022-11-04T01:09:08.608Z,8.60
2022-11-04T01:10:30.591Z,8.10
2022-11-04T01:11:52.654Z,9.30
2022-11-04T01:13:14.832Z,8.87
2022-11-04T01:14:36.946Z,9.00
2022-11-04T01:16:03.507Z,8.87
2022-11-04T01:17:25.578Z,9.87
2022-11-04T01:18:47.952Z,9.10
2022-11-04T01:20:10.505Z,8.97
2022-11-04T01:21:32.642Z,9.27
2022-11-04T01:22:54.661Z,8.60
2022-11-04T01:24:16.676Z,9.27
2022-11-04T01:25:41.910Z,8.77
2022-11-04T01:27:04.096Z,9.30
2022-11-04T01:28:26.532Z,8.97
2022-11-04T01:29:48.622Z,9.13
2022-11-04T01:31:14.146Z,8.67
2022-11-04T01:32:36.197Z,9.47
2022-11-04T01:33:59.461Z,9.20
2022-11-04T01:35:21.484Z,9.70
2022-11-04T01:36:43.630Z,9.77
2022-11-04T01:38:06.034Z,8.60
2022-11-04T01:39:28.333Z,10.87
2022-11-04T01:40:50.321Z,9.27
2022-11-04T01:42:14.594Z,9.43
2022-11-04T01:44:21.445Z,8.87
2022-11-04T01:45:59.299Z,10.63
2022-11-04T01:47:40.475Z,9.60
2022-11-04T01:49:37.899Z,8.70
2022-11-04T01:51:03.635Z,9.27
2022-11-04T01:52:32.357Z,9.17
2022-11-04T01:53:56.420Z,9.10
2022-11-04T01:55:26.107Z,8.97
2022-11-04T01:56:49.108Z,9.20
2022-11-04T01:58:15.673Z,10.23
2022-11-04T01:59:40.899Z,9.90
2022-11-04T02:01:02.991Z,10.17
2022-11-04T02:02:25.269Z,10.50
2022-11-04T02:04:19.690Z,9.93
2022-11-04T02:05:42.754Z,9.60
2022-11-04T02:07:07.849Z,10.27
2022-11-04T02:08:30.022Z,10.00
2022-11-04T02:09:52.427Z,10.37
2022-11-04T02:11:34.402Z,11.10
2022-11-04T02:12:58.179Z,9.27
2022-11-04T02:14:20.199Z,9.23
2022-11-04T02:16:01.874Z,9.20
2022-11-04T02:17:38.878Z,10.53
2022-11-04T02:19:28.245Z,9.13
2022-11-04T02:21:11.519Z,10.80
2022-11-04T02:23:07.920Z,10.40
2022-11-04T02:25:01.303Z,10.10
2022-11-04T02:26:56.886Z,9.77
2022-11-04T02:28:38.514Z,9.93
2022-11-04T02:30:11.696Z,9.90
2022-11-04T02:31:45.795Z,10.70
2022-11-04T02:33:29.301Z,9.80
2022-11-04T02:35:16.410Z,10.60
2022-11-04T02:36:50.345Z,10.57
2022-11-04T02:38:37.891Z,10.33
2022-11-04T02:40:14.533Z,10.33
2022-11-04T02:41:45.573Z,8.90
2022-11-04T02:43:22.596Z,10.47
2022-11-04T02:44:55.551Z,9.53
2022-11-04T02:46:44.065Z,9.87
2022-11-04T02:48:13.252Z,9.53
2022-11-04T02:49:41.046Z,9.43
2022-11-04T02:51:31.737Z,10.00
2022-11-04T02:53:10.780Z,9.93
2022-11-04T02:54:43.014Z,9.73
2022-11-04T02:56:06.897Z,10.60
2022-11-04T02:57:32.158Z,10.80
2022-11-04T02:58:58.777Z,9.33
2022-11-04T03:00:21.536Z,11.23
2022-11-04T03:01:46.723Z,11.67
2022-11-04T03:03:26.411Z,10.10
2022-11-04T03:04:52.487Z,9.90
2022-11-04T03:06:19.987Z,10.97
2022-11-04T03:07:44.351Z,10.93
2022-11-04T03:09:10.047Z,11.20
2022-11-04T03:10:39.720Z,10.43
2022-11-04T03:12:10.829Z,9.63
2022-11-04T03:14:48.935Z,11.60
2022-11-04T03:16:21.115Z,11.07
2022-11-04T03:18:22.431Z,10.70
2022-11-04T03:19:56.482Z,8.70
2022-11-04T03:21:21.437Z,11.20
2022-11-04T03:22:43.644Z,11.23
2022-11-04T03:24:06.385Z,11.77
2022-11-04T03:25:36.570Z,10.00
2022-11-04T03:27:18.903Z,11.40
2022-11-04T03:28:52.110Z,10.10
2022-11-04T03:32:15.063Z,11.23
2022-11-04T03:33:49.799Z,10.87
2022-11-04T03:35:14.022Z,10.23
2022-11-04T03:36:36.066Z,10.53
2022-11-04T03:37:58.819Z,11.07
2022-11-04T03:39:20.898Z,13.70
2022-11-04T03:40:43.152Z,10.57
2022-11-04T03:42:20.539Z,11.00
2022-11-04T03:43:43.258Z,10.97
2022-11-04T03:45:06.023Z,12.23
2022-11-04T03:46:28.714Z,11.67
2022-11-04T03:47:51.775Z,10.47
2022-11-04T03:49:15.180Z,12.10
2022-11-04T03:50:42.676Z,11.23
2022-11-04T03:52:04.844Z,11.80
2022-11-04T03:53:29.196Z,11.13
2022-11-04T03:54:51.281Z,10.53
2022-11-04T03:56:22.329Z,11.70
2022-11-04T03:57:55.107Z,12.00
2022-11-04T03:59:46.612Z,12.40
2022-11-04T04:01:24.491Z,11.50
2022-11-04T04:03:07.242Z,11.27
2022-11-04T04:04:48.742Z,10.93
2022-11-04T04:06:25.239Z,10.63
2022-11-04T04:07:55.094Z,10.53
2022-11-04T04:09:25.107Z,11.83
2022-11-04T04:11:07.470Z,12.27
2022-11-04T04:12:38.587Z,11.30
2022-11-04T04:14:12.988Z,12.53
2022-11-04T04:16:02.923Z,10.83
2022-11-04T04:17:39.601Z,10.93
2022-11-04T04:19:18.609Z,10.97
2022-11-04T04:20:42.213Z,10.77
2022-11-04T04:22:10.845Z,11.10
2022-11-04T04:23:54.019Z,12.47
2022-11-04T04:25:36.028Z,11.53
2022-11-04T04:27:17.695Z,11.73
2022-11-04T04:28:42.031Z,12.57
2022-11-04T04:30:10.031Z,11.40
2022-11-04T04:31:52.547Z,10.40
2022-11-04T04:33:18.570Z,11.10
2022-11-04T04:34:40.775Z,11.00
2022-11-04T04:36:03.350Z,12.20
2022-11-04T04:37:27.487Z,11.73
2022-11-04T04:39:07.964Z,10.60
2022-11-04T04:40:50.025Z,11.17
2022-11-04T04:42:30.826Z,11.83
2022-11-04T04:44:11.481Z,10.37
2022-11-04T04:45:36.632Z,11.33
2022-11-04T04:47:00.952Z,11.90
2022-11-04T04:48:22.998Z,12.33
2022-11-04T04:49:56.081Z,11.07
2022-11-04T04:51:18.514Z,11.80
2022-11-04T04:52:44.185Z,11.63
2022-11-04T04:54:06.667Z,11.80
2022-11-04T04:55:30.094Z,12.47
2022-11-04T04:56:52.155Z,12.00
2022-11-04T04:58:14.248Z,10.60
2022-11-04T04:59:36.284Z,11.53
2022-11-04T05:00:58.419Z,12.23
2022-11-04T05:02:20.610Z,10.60
2022-11-04T05:03:45.331Z,11.13
2022-11-04T05:05:08.033Z,11.50
2022-11-04T05:06:30.139Z,11.50
2022-11-04T05:07:52.142Z,11.60
2022-11-04T05:09:14.246Z,11.57
2022-11-04T05:10:36.313Z,11.80
2022-11-04T05:11:58.333Z,11.50
2022-11-04T05:13:26.057Z,11.30
2022-11-04T05:14:48.115Z,12.00
2022-11-04T05:16:11.563Z,11.83
2022-11-04T05:17:33.614Z,11.80
2022-11-04T05:18:55.711Z,12.03
2022-11-04T05:20:17.772Z,11.17
2022-11-04T05:21:39.766Z,11.70
2022-11-04T05:23:01.865Z,11.90
2022-11-04T05:24:24.112Z,11.50
2022-11-04T05:25:46.157Z,11.80
2022-11-04T05:27:08.136Z,11.77
2022-11-04T05:28:30.709Z,10.70
2022-11-04T05:29:52.834Z,11.80
2022-11-04T05:31:14.992Z,10.97
2022-11-04T05:32:37.127Z,11.17
2022-11-04T05:33:59.854Z,11.40
2022-11-04T05:35:21.848Z,11.00
2022-11-04T05:36:43.922Z,12.90
2022-11-04T05:38:05.974Z,11.30
2022-11-04T05:39:27.960Z,12.10
2022-11-04T05:40:49.968Z,12.00
2022-11-04T05:42:12.019Z,12.23
2022-11-04T05:43:34.781Z,11.97
2022-11-04T05:44:56.778Z,12.50
2022-11-04T05:46:18.815Z,11.40
2022-11-04T05:47:40.904Z,11.03
2022-11-04T05:49:03.004Z,11.60
2022-11-04T05:50:25.304Z,11.83
2022-11-04T05:51:47.455Z,11.27
2022-11-04T05:53:09.668Z,11.83
2022-11-04T05:54:31.940Z,11.80
2022-11-04T05:55:53.966Z,11.37
2022-11-04T05:57:15.933Z,12.13
2022-11-04T05:58:38.109Z,12.17
2022-11-04T06:00:00.142Z,12.83
2022-11-04T06:01:40.328Z,13.40
2022-11-04T06:03:02.975Z,12.83
2022-11-04T06:04:25.039Z,12.10
2022-11-04T06:05:47.050Z,12.70
2022-11-04T06:07:09.330Z,11.83
2022-11-04T06:08:31.652Z,12.63
2022-11-04T06:09:53.649Z,12.30
2022-11-04T06:11:15.756Z,11.60
2022-11-04T06:12:37.817Z,11.90
2022-11-04T06:14:00.314Z,12.80
2022-11-04T06:15:22.384Z,12.63
2022-11-04T06:16:44.371Z,12.50
2022-11-04T06:18:06.559Z,13.37
2022-11-04T06:19:28.741Z,13.30
2022-11-04T06:20:50.839Z,12.30
2022-11-04T06:22:15.013Z,11.60
2022-11-04T06:23:37.014Z,11.70
2022-11-04T06:24:59.108Z,12.43
2022-11-04T06:26:26.819Z,12.47
2022-11-04T06:27:50.096Z,12.80
2022-11-04T06:29:12.238Z,11.77
2022-11-04T06:30:34.324Z,11.63
2022-11-04T06:31:56.309Z,12.47
2022-11-04T06:33:18.319Z,13.20
2022-11-04T06:34:40.605Z,12.23
2022-11-04T06:36:05.856Z,12.50
2022-11-04T06:37:27.915Z,12.23
2022-11-04T06:38:50.080Z,12.90
2022-11-04T06:40:12.352Z,11.47
2022-11-04T06:41:34.556Z,13.17
2022-11-04T06:42:56.717Z,11.30
2022-11-04T06:44:18.730Z,12.50
2022-11-04T06:45:40.733Z,12.67
2022-11-04T06:47:02.832Z,11.97
2022-11-04T06:48:25.329Z,12.17
2022-11-04T06:49:47.344Z,11.83
2022-11-04T06:51:09.335Z,12.30
2022-11-04T06:52:31.434Z,13.60
2022-11-04T06:53:53.751Z,11.70
2022-11-04T06:55:15.939Z,12.50
2022-11-04T06:56:38.413Z,11.23
2022-11-04T06:58:00.564Z,12.37
2022-11-04T06:59:23.930Z,12.53
2022-11-04T07:00:52.640Z,12.47
2022-11-04T07:02:14.784Z,12.23
2022-11-04T07:03:36.885Z,12.93
2022-11-04T07:04:58.885Z,12.10
2022-11-04T07:06:22.140Z,12.80
2022-11-04T07:07:44.190Z,11.73
2022-11-04T07:09:06.189Z,11.93
2022-11-04T07:10:28.341Z,11.37
2022-11-04T07:11:50.539Z,12.37
2022-11-04T07:13:12.669Z,12.40
2022-11-04T07:14:34.663Z,11.90
2022-11-04T07:15:57.289Z,10.93
2022-11-04T07:17:19.333Z,12.40
2022-11-04T07:18:41.850Z,12.13
2022-11-04T07:20:05.649Z,11.53
2022-11-04T07:21:27.725Z,11.57
2022-11-04T07:22:49.753Z,11.50
2022-11-04T07:24:11.773Z,11.73
2022-11-04T07:25:34.150Z,11.43
2022-11-04T07:26:56.360Z,11.27
2022-11-04T07:28:18.441Z,12.33
2022-11-04T07:29:40.481Z,11.83
2022-11-04T07:31:04.115Z,11.30
2022-11-04T07:32:26.151Z,12.20
2022-11-04T07:33:50.224Z,11.80
2022-11-04T07:35:12.747Z,13.17
2022-11-04T07:36:34.756Z,11.97
2022-11-04T07:37:56.771Z,12.00
2022-11-04T07:39:18.752Z,12.10
2022-11-04T07:40:40.782Z,11.93
2022-11-04T07:42:02.807Z,11.37
2022-11-04T07:43:25.085Z,11.70
2022-11-04T07:44:47.552Z,12.43
2022-11-04T07:46:14.700Z,12.30
2022-11-04T07:47:36.811Z,12.30
2022-11-04T07:48:59.398Z,12.30
2022-11-04T07:50:21.531Z,12.93
2022-11-04T07:51:43.648Z,12.27
2022-11-04T07:53:06.141Z,11.63
2022-11-04T07:54:28.930Z,11.90
2022-11-04T07:55:51.076Z,11.03
2022-11-04T07:57:13.222Z,11.83
2022-11-04T07:58:35.398Z,11.90
2022-11-04T07:59:57.455Z,11.20
2022-11-04T08:01:23.344Z,11.90
2022-11-04T08:02:46.828Z,12.33
2022-11-04T08:04:08.958Z,11.80
2022-11-04T08:05:30.958Z,11.00
2022-11-04T08:06:53.256Z,11.83
2022-11-04T08:08:15.276Z,11.27
2022-11-04T08:09:37.307Z,12.17
2022-11-04T08:11:15.862Z,11.10
2022-11-04T08:12:39.096Z,10.77
2022-11-04T08:14:03.996Z,11.40
2022-11-04T08:15:26.122Z,12.23
2022-11-04T08:16:51.199Z,11.93
2022-11-04T08:18:13.242Z,12.03
2022-11-04T08:19:35.330Z,11.80
2022-11-04T08:20:57.445Z,11.53
2022-11-04T08:22:19.498Z,11.53
2022-11-04T08:23:41.749Z,12.93
2022-11-04T08:25:04.296Z,13.30
2022-11-04T08:26:26.408Z,12.37
2022-11-04T08:27:48.711Z,12.37
2022-11-04T08:29:10.700Z,11.17
2022-11-04T08:30:33.611Z,11.10
2022-11-04T08:31:55.645Z,12.00
2022-11-04T08:33:17.651Z,11.73
2022-11-04T08:34:40.094Z,13.07
2022-11-04T08:36:09.319Z,12.00
2022-11-04T08:37:31.591Z,11.93
2022-11-04T08:38:54.444Z,11.60
2022-11-04T08:40:16.547Z,11.03
2022-11-04T08:41:41.661Z,12.40
2022-11-04T08:43:03.958Z,11.93
2022-11-04T08:44:26.131Z,11.20
2022-11-04T08:45:48.230Z,11.20
2022-11-04T08:47:10.303Z,12.30
2022-11-04T08:48:33.501Z,12.13
2022-11-04T08:49:55.478Z,11.43
2022-11-04T08:51:21.060Z,11.13
2022-11-04T08:52:43.055Z,11.70
2022-11-04T08:54:05.641Z,10.20
2022-11-04T08:55:31.747Z,11.63
2022-11-04T08:56:54.073Z,11.20
2022-11-04T08:58:16.374Z,11.90
2022-11-04T08:59:38.424Z,11.63
2022-11-04T09:01:04.535Z,11.73
2022-11-04T09:02:26.619Z,11.80
2022-11-04T09:03:49.604Z,12.13
2022-11-04T09:05:11.668Z,11.80
2022-11-04T09:06:37.395Z,11.77
2022-11-04T09:08:01.106Z,11.20
2022-11-04T09:09:23.115Z,12.57
2022-11-04T09:10:46.539Z,12.60
2022-11-04T09:12:11.769Z,12.10
2022-11-04T09:13:39.243Z,11.10
2022-11-04T09:15:02.521Z,11.67
2022-11-04T09:16:24.523Z,11.37
2022-11-04T09:17:46.535Z,11.97
2022-11-04T09:19:08.611Z,11.40
2022-11-04T09:20:31.304Z,12.30
2022-11-04T09:21:53.708Z,11.57
2022-11-04T09:23:15.761Z,11.23
2022-11-04T09:24:37.884Z,11.90
2022-11-04T09:26:11.546Z,11.57
2022-11-04T09:27:33.647Z,11.10
2022-11-04T09:28:56.834Z,11.83
2022-11-04T09:30:18.938Z,12.17
2022-11-04T09:31:42.262Z,11.20
2022-11-04T09:33:04.500Z,11.77
2022-11-04T09:34:28.708Z,11.37
2022-11-04T09:35:57.763Z,10.63
2022-11-04T09:37:19.850Z,11.27
2022-11-04T09:38:42.525Z,10.53
2022-11-04T09:40:05.007Z,11.60
2022-11-04T09:41:49.427Z,11.37
2022-11-04T09:43:20.621Z,10.47
2022-11-04T09:45:19.339Z,11.87
2022-11-04T09:46:34.888Z,13.30
2022-11-04T09:48:01.654Z,10.07
2022-11-04T09:49:27.236Z,11.10
2022-11-04T09:50:53.062Z,10.67
2022-11-04T09:52:23.377Z,10.90
2022-11-04T09:53:49.401Z,11.33
2022-11-04T09:55:41.673Z,10.23
2022-11-04T09:57:04.501Z,11.50
2022-11-04T09:58:27.953Z,11.07
2022-11-04T09:59:50.193Z,12.50
2022-11-04T10:01:29.714Z,11.97
2022-11-04T10:03:19.802Z,11.87
2022-11-04T10:04:50.334Z,11.37
2022-11-04T10:06:23.762Z,11.30
2022-11-04T10:08:17.800Z,10.90
2022-11-04T10:10:05.270Z,10.80
2022-11-04T10:11:56.343Z,12.20
2022-11-04T10:13:21.208Z,11.17
2022-11-04T10:15:02.224Z,11.10
2022-11-04T10:16:32.908Z,10.73
2022-11-04T10:18:17.168Z,10.13
2022-11-04T10:19:52.079Z,11.27
2022-11-04T10:21:39.421Z,10.03
2022-11-04T10:23:15.273Z,10.47
2022-11-04T10:24:42.892Z,11.13
2022-11-04T10:26:19.480Z,10.10
2022-11-04T10:27:45.657Z,11.03
2022-11-04T10:29:33.953Z,9.70
2022-11-04T10:30:55.997Z,11.37
2022-11-04T10:32:29.366Z,10.70
2022-11-04T10:33:56.250Z,10.40
2022-11-04T10:35:46.954Z,10.57
2022-11-04T10:37:12.991Z,9.43
2022-11-04T10:38:46.697Z,9.20
2022-11-04T10:40:25.918Z,9.87
2022-11-04T10:41:47.987Z,8.77
2022-11-04T10:43:15.993Z,8.40
2022-11-04T10:44:38.978Z,9.00
2022-11-04T10:46:24.853Z,9.50
2022-11-04T10:48:23.691Z,9.90
2022-11-04T10:50:32.971Z,8.50
2022-11-04T10:51:57.012Z,8.03
2022-11-04T10:53:39.298Z,8.50
2022-11-04T10:55:01.600Z,7.67
2022-11-04T10:56:43.621Z,7.63
2022-11-04T10:58:19.091Z,8.27
2022-11-04T11:00:03.276Z,8.27
2022-11-04T11:01:35.537Z,7.60
2022-11-04T11:02:57.818Z,7.60
2022-11-04T11:04:36.118Z,8.10
2022-11-04T11:06:20.536Z,7.80
2022-11-04T11:07:47.442Z,7.70
2022-11-04T11:09:13.863Z,9.23
2022-11-04T11:10:36.155Z,7.60
2022-11-04T11:12:02.815Z,7.20
2022-11-04T11:13:34.575Z,7.10
2022-11-04T11:14:57.726Z,7.50
2022-11-04T11:16:25.589Z,8.40
2022-11-04T11:17:47.794Z,7.50
2022-11-04T11:19:17.614Z,7.07
2022-11-04T11:20:41.111Z,7.10
2022-11-04T11:22:03.234Z,7.67
2022-11-04T11:23:40.558Z,8.43
2022-11-04T11:25:28.387Z,7.40
2022-11-04T11:26:57.301Z,7.87
2022-11-04T11:28:26.591Z,8.73
2022-11-04T11:29:56.139Z,8.30
2022-11-04T11:31:27.902Z,9.10
2022-11-04T11:32:55.753Z,9.00
2022-11-04T11:34:37.541Z,7.90
2022-11-04T11:36:14.734Z,7.97
2022-11-04T11:37:37.042Z,9.03
2022-11-04T11:39:03.457Z,8.50
2022-11-04T11:40:31.965Z,8.70
2022-11-04T11:42:01.203Z,7.40
2022-11-04T11:43:29.194Z,7.70
2022-11-04T11:44:54.619Z,8.10
2022-11-04T11:46:23.522Z,8.33
2022-11-04T11:47:47.492Z,8.37
2022-11-04T11:49:29.095Z,8.10
2022-11-04T11:51:00.138Z,9.37
2022-11-04T11:52:34.131Z,7.70
2022-11-04T11:54:02.493Z,7.70
2022-11-04T11:55:36.925Z,8.83
2022-11-04T11:57:24.951Z,7.60
2022-11-04T12:00:58.157Z,8.00
2022-11-04T12:02:53.118Z,8.10
2022-11-04T12:09:46.063Z,8.70
2022-11-04T12:11:16.274Z,8.53
2022-11-04T12:12:58.673Z,8.60
2022-11-04T12:14:36.531Z,8.57
2022-11-04T12:16:14.012Z,8.60
2022-11-04T12:17:48.594Z,8.30
2022-11-04T12:19:40.726Z,8.10
2022-11-04T12:21:33.874Z,7.50
2022-11-04T12:23:18.528Z,8.67
2022-11-04T12:25:05.191Z,8.13
2022-11-04T12:26:36.531Z,9.20
2022-11-04T12:28:02.810Z,8.60
2022-11-04T12:29:33.811Z,8.60
2022-11-04T12:31:04.616Z,8.63
2022-11-04T12:32:44.919Z,8.00
2022-11-04T12:34:31.632Z,8.50
2022-11-04T12:36:08.795Z,8.80
2022-11-04T12:37:53.883Z,8.33
2022-11-04T12:39:29.168Z,8.40
2022-11-04T12:41:28.055Z,8.70
2022-11-04T12:43:00.204Z,8.70
2022-11-04T12:44:34.446Z,8.77
2022-11-04T12:46:17.799Z,8.70
2022-11-04T12:47:47.696Z,9.37
2022-11-04T12:49:34.048Z,8.90
2022-11-04T12:51:18.402Z,8.27
2022-11-04T12:53:08.242Z,8.80
2022-11-04T12:55:08.972Z,8.23
2022-11-04T12:56:40.754Z,8.50
2022-11-04T12:58:27.715Z,8.20
2022-11-04T13:00:10.516Z,9.60
2022-11-04T13:01:41.835Z,9.50
2022-11-04T13:03:21.250Z,8.10
2022-11-04T13:05:05.173Z,8.63
2022-11-04T13:06:51.570Z,8.67
2022-11-04T13:08:34.962Z,8.30
2022-11-04T13:10:04.080Z,8.50
2022-11-04T13:11:49.732Z,8.70
2022-11-04T13:13:14.592Z,9.60
2022-11-04T13:15:01.443Z,8.30
2022-11-04T13:16:23.664Z,8.23
2022-11-04T13:17:49.224Z,8.90
2022-11-04T13:19:31.433Z,7.67
2022-11-04T13:21:09.963Z,7.83
2022-11-04T13:22:36.580Z,8.70
2022-11-04T13:24:15.972Z,8.90
2022-11-04T13:25:43.443Z,8.83
2022-11-04T13:27:23.701Z,8.70
2022-11-04T13:28:56.097Z,9.20
2022-11-04T13:30:33.538Z,8.40
2022-11-04T13:32:18.714Z,9.57
2022-11-04T13:33:52.958Z,8.40
2022-11-04T13:35:40.882Z,8.00
2022-11-04T13:37:14.401Z,9.20
2022-11-04T13:38:41.558Z,7.57
2022-11-04T13:40:11.680Z,8.40
2022-11-04T13:41:58.018Z,8.37
2022-11-04T13:43:41.723Z,8.57
2022-11-04T13:45:16.466Z,9.13
2022-11-04T13:46:38.680Z,8.30
2022-11-04T13:48:01.586Z,9.30
2022-11-04T13:49:36.963Z,8.47
2022-11-04T13:51:12.438Z,7.73
2022-11-04T13:52:52.287Z,8.17
2022-11-04T13:54:32.857Z,8.03
2022-11-04T13:56:01.338Z,9.27
2022-11-04T13:57:48.679Z,9.20
2022-11-04T13:59:28.033Z,7.90
2022-11-04T14:01:19.279Z,8.70
2022-11-04T14:02:51.609Z,9.40
2022-11-04T14:04:13.663Z,8.60
2022-11-04T14:05:41.411Z,8.23
2022-11-04T14:07:04.949Z,9.23
2022-11-04T14:08:27.216Z,9.40
2022-11-04T14:09:55.088Z,8.33
2022-11-04T14:11:17.181Z,8.10
2022-11-04T14:12:39.444Z,8.43
2022-11-04T14:14:03.634Z,10.73
2022-11-04T14:16:03.058Z,7.97
2022-11-04T14:17:34.369Z,8.40
2022-11-04T14:18:56.465Z,8.40
2022-11-04T14:20:26.145Z,10.83
2022-11-04T14:22:07.947Z,8.53
2022-11-04T14:23:29.977Z,8.83
2022-11-04T14:24:57.603Z,8.90
2022-11-04T14:26:23.784Z,9.40
2022-11-04T14:27:51.565Z,9.53
2022-11-04T14:29:19.685Z,9.00
2022-11-04T14:30:53.382Z,8.40
2022-11-04T14:32:20.540Z,8.80
2022-11-04T14:33:54.335Z,8.90
2022-11-04T14:35:18.918Z,10.33
2022-11-04T14:36:41.539Z,9.17
2022-11-04T14:38:17.947Z,9.53
2022-11-04T14:39:42.167Z,9.30
2022-11-04T14:41:22.940Z,9.67
2022-11-04T14:42:48.041Z,10.43
2022-11-04T14:44:13.023Z,8.83
2022-11-04T14:45:39.829Z,9.53
2022-11-04T14:47:29.834Z,8.70
2022-11-04T14:48:54.604Z,9.37
2022-11-04T14:50:26.411Z,9.37
2022-11-04T14:51:49.586Z,10.37
2022-11-04T14:53:35.417Z,10.60
2022-11-04T14:55:02.300Z,10.63
2022-11-04T14:56:24.971Z,9.77
2022-11-04T14:57:55.419Z,9.87
2022-11-04T14:59:27.431Z,10.53
2022-11-04T15:00:49.499Z,10.13
2022-11-04T15:02:22.612Z,10.63
2022-11-04T15:04:10.641Z,9.97
2022-11-04T15:05:29.761Z,9.90
2022-11-04T15:06:56.227Z,9.40
2022-11-04T15:08:40.852Z,9.73
2022-11-04T15:10:20.247Z,10.17
2022-11-04T15:12:00.825Z,10.60
2022-11-04T15:13:22.975Z,10.03
2022-11-04T15:14:45.181Z,10.40
2022-11-04T15:16:26.460Z,9.37
2022-11-04T15:17:48.522Z,10.20
2022-11-04T15:19:10.920Z,9.83
2022-11-04T15:20:35.804Z,10.50
2022-11-04T15:22:02.895Z,10.40
2022-11-04T15:23:40.686Z,12.33
2022-11-04T15:25:05.866Z,12.37
2022-11-04T15:26:30.841Z,11.47
2022-11-04T15:27:54.055Z,13.00
2022-11-04T15:29:17.934Z,10.53
2022-11-04T15:30:40.423Z,12.00
2022-11-04T15:32:05.532Z,10.47
2022-11-04T15:33:28.544Z,11.20
2022-11-04T15:34:51.788Z,9.60
2022-11-04T15:36:33.365Z,10.27
2022-11-04T15:37:56.767Z,10.97
2022-11-04T15:39:25.686Z,10.77
2022-11-04T15:40:48.040Z,11.30
2022-11-04T15:42:39.972Z,9.60
2022-11-04T15:44:02.505Z,11.10
2022-11-04T15:45:38.382Z,11.13
2022-11-04T15:47:03.413Z,10.67
2022-11-04T15:48:40.522Z,11.20
2022-11-04T15:50:16.582Z,11.67
2022-11-04T15:51:41.757Z,12.13
2022-11-04T15:53:10.353Z,9.60
2022-11-04T15:54:41.533Z,10.43
2022-11-04T15:56:04.273Z,11.10
2022-11-04T15:57:34.677Z,11.30
2022-11-04T15:58:59.195Z,10.30
2022-11-04T16:00:28.423Z,10.87
2022-11-04T16:01:53.360Z,10.10
2022-11-04T16:03:19.511Z,10.37
2022-11-04T16:04:45.358Z,11.03
2022-11-04T16:06:13.468Z,10.43
2022-11-04T16:07:40.511Z,11.70
2022-11-04T16:09:27.691Z,10.77
2022-11-04T16:10:50.887Z,10.80
2022-11-04T16:12:28.506Z,11.53
2022-11-04T16:13:50.544Z,9.63
2022-11-04T16:15:33.775Z,10.10
2022-11-04T16:16:55.959Z,9.80
2022-11-04T16:18:30.228Z,11.17
2022-11-04T16:19:58.985Z,12.33
2022-11-04T16:21:28.904Z,12.30
2022-11-04T16:23:02.365Z,10.53
2022-11-04T16:24:27.425Z,11.80
2022-11-04T16:25:59.106Z,11.83
2022-11-04T16:27:22.554Z,9.77
2022-11-04T16:28:44.615Z,13.20
2022-11-04T16:30:21.646Z,12.93
2022-11-04T16:31:44.080Z,13.07
2022-11-04T16:33:11.765Z,18.20
2022-11-04T16:34:35.288Z,19.30
2022-11-04T16:35:57.349Z,17.83
2022-11-04T16:37:19.527Z,13.90
2022-11-04T16:38:41.525Z,11.63
2022-11-04T16:40:06.237Z,12.00
2022-11-04T16:41:29.099Z,14.03
2022-11-04T16:42:52.613Z,14.57
2022-11-04T16:44:19.997Z,12.50
2022-11-04T16:45:50.865Z,14.30
2022-11-04T16:47:16.484Z,11.50
2022-11-04T16:48:38.454Z,12.77
2022-11-04T16:50:01.964Z,13.13
2022-11-04T16:51:24.621Z,12.90
2022-11-04T16:52:47.094Z,11.73
2022-11-04T16:54:09.092Z,13.13
2022-11-04T16:55:32.434Z,13.13
2022-11-04T16:57:00.183Z,12.03
2022-11-04T16:58:22.671Z,12.40
2022-11-04T16:59:44.912Z,11.73
2022-11-04T17:01:07.022Z,10.73
2022-11-04T17:02:31.081Z,12.80
2022-11-04T17:03:53.315Z,11.00
2022-11-04T17:05:15.778Z,10.93
2022-11-04T17:06:38.495Z,12.80
2022-11-04T17:08:05.097Z,12.70
2022-11-04T17:09:28.202Z,12.93
2022-11-04T17:10:50.320Z,14.07
2022-11-04T17:12:12.412Z,13.77
2022-11-04T17:13:36.504Z,12.57
2022-11-04T17:14:58.837Z,12.07
2022-11-04T17:16:20.888Z,12.13
2022-11-04T17:17:44.349Z,13.13
2022-11-04T17:19:06.407Z,12.23
2022-11-04T17:20:29.914Z,12.17
2022-11-04T17:21:52.100Z,12.47
2022-11-04T17:23:15.733Z,11.60
2022-11-04T17:24:37.996Z,13.50
2022-11-04T17:26:01.590Z,12.27
2022-11-04T17:27:23.577Z,12.80
2022-11-04T17:28:45.757Z,12.87
2022-11-04T17:30:08.602Z,14.50
2022-11-04T17:31:30.615Z,16.20
2022-11-04T17:32:52.744Z,15.23
2022-11-04T17:34:14.872Z,16.37
2022-11-04T17:35:41.827Z,15.23
2022-11-04T17:37:03.827Z,15.27
2022-11-04T17:38:25.815Z,14.33
2022-11-04T17:39:47.935Z,15.07
2022-11-04T17:41:28.440Z,13.57
2022-11-04T17:43:12.282Z,14.13
2022-11-04T17:44:34.851Z,15.07
2022-11-04T17:46:16.848Z,16.30
2022-11-04T17:47:38.915Z,16.50
2022-11-04T17:49:09.869Z,14.83
2022-11-04T17:50:32.835Z,15.70
2022-11-04T17:51:57.084Z,15.07
2022-11-04T17:53:19.102Z,16.30
2022-11-04T17:54:41.092Z,16.77
2022-11-04T17:56:03.210Z,15.03
2022-11-04T17:57:25.609Z,15.43
2022-11-04T17:58:48.330Z,16.80
2022-11-04T18:00:11.093Z,15.30
2022-11-04T18:01:34.748Z,15.03
2022-11-04T18:02:57.148Z,15.77
2022-11-04T18:04:23.338Z,16.10
2022-11-04T18:05:45.335Z,14.63
2022-11-04T18:07:07.375Z,14.40
2022-11-04T18:08:29.413Z,16.23
2022-11-04T18:09:51.445Z,15.23
2022-11-04T18:11:34.307Z,14.20
2022-11-04T18:12:56.375Z,15.67
2022-11-04T18:14:18.585Z,13.90
2022-11-04T18:15:40.598Z,15.93
2022-11-04T18:17:04.598Z,16.10
2022-11-04T18:18:26.618Z,15.80
2022-11-04T18:19:48.627Z,16.00
2022-11-04T18:21:10.854Z,16.57
2022-11-04T18:22:32.824Z,16.20
2022-11-04T18:23:55.738Z,14.50
2022-11-04T18:25:18.505Z,14.23
2022-11-04T18:26:41.582Z,15.77
2022-11-04T18:28:03.629Z,15.43
2022-11-04T18:29:25.677Z,13.57
2022-11-04T18:30:47.686Z,13.80
2022-11-04T18:32:09.702Z,15.80
2022-11-04T18:33:31.724Z,13.37
2022-11-04T18:34:53.744Z,13.07
2022-11-04T18:36:15.960Z,12.70
2022-11-04T18:37:39.686Z,11.70
2022-11-04T18:39:06.541Z,12.93
2022-11-04T18:40:28.625Z,15.03
2022-11-04T18:41:50.706Z,12.60
2022-11-04T18:43:12.918Z,12.37
2022-11-04T18:44:35.867Z,12.80
2022-11-04T18:45:57.875Z,13.67
2022-11-04T18:47:20.323Z,13.07
2022-11-04T18:48:43.023Z,11.80
2022-11-04T18:50:05.420Z,13.47
2022-11-04T18:51:27.543Z,12.03
2022-11-04T18:52:54.082Z,12.90
2022-11-04T18:54:16.199Z,12.70
2022-11-04T18:55:38.192Z,12.60
2022-11-04T18:57:00.292Z,12.87
2022-11-04T18:58:25.078Z,11.93
2022-11-04T18:59:47.646Z,12.43
2022-11-04T19:01:14.495Z,11.57
2022-11-04T19:02:36.930Z,12.10
2022-11-04T19:03:59.618Z,12.10
2022-11-04T19:05:21.697Z,11.20
2022-11-04T19:06:44.953Z,10.60
2022-11-04T19:08:07.497Z,11.03
2022-11-04T19:09:45.995Z,11.87
2022-11-04T19:11:15.246Z,11.30
2022-11-04T19:12:55.733Z,10.20
2022-11-04T19:14:19.137Z,10.70
2022-11-04T19:15:41.384Z,10.37
2022-11-04T19:17:03.435Z,10.77
2022-11-04T19:18:25.503Z,12.30
2022-11-04T19:19:47.805Z,13.07
2022-11-04T19:21:12.342Z,12.83
2022-11-04T19:22:34.310Z,10.97